OVO4706 ZPPP-ZSNJ
Flight info
| Callsign | OVO4706 |
|---|---|
| Flight time | 2h 12m |
| Altitude | 41100 |
| Route | NODIB W137 LPS A581 WHA R343 HFE |
| Aircraft | B737/M-SDE2E3FGHIRWXY/LB1 |
Departure
| Time | 2026-05-04 12:25 |
|---|---|
| Airport | Kunming Changshui International Airport (ZPPP) |
Arrival
| Time | 2026-05-04 14:37 |
|---|---|
| Airport | Nanjing Lukou International Airport (ZSNJ) |
| Time | Latitude | Longitude | Altitude | Speed | Heading |
|---|---|---|---|---|---|
| 2026-05-04 12:09 | 25.10391 | 102.93251 | 6897 ft | 0 kts | 187° |
| 2026-05-04 12:16 | 25.10404 | 102.93253 | 6897 ft | 2 kts | 187° |
| 2026-05-04 12:16 | 25.10420 | 102.93255 | 6897 ft | 2 kts | 187° |
| 2026-05-04 12:16 | 25.10436 | 102.93258 | 6897 ft | 2 kts | 187° |
| 2026-05-04 12:16 | 25.10452 | 102.93260 | 6897 ft | 2 kts | 201° |
| 2026-05-04 12:17 | 25.10465 | 102.93271 | 6898 ft | 2 kts | 246° |
| 2026-05-04 12:17 | 25.10468 | 102.93283 | 6897 ft | 0 kts | 278° |
| 2026-05-04 12:17 | 25.10468 | 102.93282 | 6897 ft | 1 kts | 278° |
| 2026-05-04 12:17 | 25.10468 | 102.93281 | 6897 ft | 0 kts | 278° |
| 2026-05-04 12:18 | 25.10469 | 102.93279 | 6897 ft | 3 kts | 291° |
| 2026-05-04 12:19 | 25.10523 | 102.93238 | 6898 ft | 19 kts | 343° |
| 2026-05-04 12:19 | 25.10639 | 102.93154 | 6899 ft | 20 kts | 310° |
| 2026-05-04 12:19 | 25.10751 | 102.93071 | 6901 ft | 20 kts | 347° |
| 2026-05-04 12:19 | 25.10864 | 102.92997 | 6902 ft | 19 kts | 309° |
| 2026-05-04 12:20 | 25.10943 | 102.92882 | 6903 ft | 18 kts | 306° |
| 2026-05-04 12:20 | 25.11018 | 102.92769 | 6903 ft | 18 kts | 310° |
| 2026-05-04 12:20 | 25.11116 | 102.92714 | 6903 ft | 17 kts | 31° |
| 2026-05-04 12:20 | 25.11207 | 102.92796 | 6903 ft | 17 kts | 38° |
| 2026-05-04 12:21 | 25.11300 | 102.92876 | 6903 ft | 18 kts | 38° |
| 2026-05-04 12:21 | 25.11407 | 102.92969 | 6902 ft | 21 kts | 38° |
| 2026-05-04 12:21 | 25.11533 | 102.93078 | 6902 ft | 23 kts | 38° |
| 2026-05-04 12:21 | 25.11671 | 102.93198 | 6901 ft | 30 kts | 38° |
| 2026-05-04 12:22 | 25.11834 | 102.93339 | 6900 ft | 30 kts | 38° |
| 2026-05-04 12:22 | 25.11998 | 102.93480 | 6899 ft | 29 kts | 37° |
| 2026-05-04 12:22 | 25.12146 | 102.93610 | 6899 ft | 27 kts | 39° |
| 2026-05-04 12:22 | 25.12286 | 102.93732 | 6898 ft | 25 kts | 38° |
| 2026-05-04 12:23 | 25.12415 | 102.93844 | 6897 ft | 23 kts | 38° |
| 2026-05-04 12:23 | 25.12539 | 102.93950 | 6897 ft | 22 kts | 38° |
| 2026-05-04 12:23 | 25.12659 | 102.94055 | 6896 ft | 22 kts | 38° |
| 2026-05-04 12:23 | 25.12761 | 102.94143 | 6896 ft | 8 kts | 30° |
| 2026-05-04 12:24 | 25.12813 | 102.94124 | 6895 ft | 9 kts | 311° |
| 2026-05-04 12:24 | 25.12855 | 102.94063 | 6894 ft | 12 kts | 303° |
| 2026-05-04 12:24 | 25.12850 | 102.93983 | 6894 ft | 6 kts | 223° |
| 2026-05-04 12:24 | 25.12540 | 102.93710 | 6897 ft | 110 kts | 218° |
| 2026-05-04 12:25 | 25.11775 | 102.93043 | 7504 ft | 145 kts | 219° |
| 2026-05-04 12:25 | 25.10988 | 102.92351 | 8795 ft | 148 kts | 221° |
| 2026-05-04 12:25 | 25.10156 | 102.91647 | 9890 ft | 157 kts | 224° |
| 2026-05-04 12:25 | 25.09373 | 102.90646 | 10422 ft | 191 kts | 235° |
| 2026-05-04 12:26 | 25.08485 | 102.89377 | 10691 ft | 227 kts | 236° |
| 2026-05-04 12:26 | 25.07461 | 102.87881 | 10989 ft | 258 kts | 236° |
| 2026-05-04 12:26 | 25.06363 | 102.86270 | 11784 ft | 267 kts | 236° |
| 2026-05-04 12:26 | 25.05242 | 102.84612 | 12780 ft | 270 kts | 236° |
| 2026-05-04 12:27 | 25.04119 | 102.82960 | 14129 ft | 269 kts | 237° |
| 2026-05-04 12:27 | 25.02995 | 102.81302 | 15268 ft | 271 kts | 237° |
| 2026-05-04 12:27 | 25.01858 | 102.79625 | 16427 ft | 274 kts | 237° |
| 2026-05-04 12:27 | 25.00460 | 102.78090 | 17151 ft | 303 kts | 219° |
| 2026-05-04 12:28 | 24.98396 | 102.77120 | 17542 ft | 342 kts | 197° |
| 2026-05-04 12:28 | 24.95951 | 102.77012 | 18428 ft | 363 kts | 175° |
| 2026-05-04 12:28 | 24.93565 | 102.78068 | 19352 ft | 382 kts | 149° |
| 2026-05-04 12:28 | 24.91707 | 102.80215 | 20260 ft | 396 kts | 124° |
| 2026-05-04 12:29 | 24.90297 | 102.82842 | 21138 ft | 403 kts | 122° |
| 2026-05-04 12:29 | 24.88881 | 102.85544 | 21958 ft | 410 kts | 122° |
| 2026-05-04 12:29 | 24.87410 | 102.88271 | 22794 ft | 416 kts | 123° |
| 2026-05-04 12:29 | 24.85885 | 102.90995 | 23646 ft | 421 kts | 124° |
| 2026-05-04 12:30 | 24.84305 | 102.93757 | 24243 ft | 430 kts | 124° |
| 2026-05-04 12:30 | 24.82724 | 102.96576 | 24836 ft | 437 kts | 119° |
| 2026-05-04 12:30 | 24.81871 | 102.99759 | 25821 ft | 431 kts | 95° |
| 2026-05-04 12:30 | 24.82020 | 103.03006 | 26907 ft | 423 kts | 74° |
| 2026-05-04 12:31 | 24.83068 | 103.05971 | 27882 ft | 410 kts | 52° |
| 2026-05-04 12:31 | 24.84827 | 103.08352 | 28838 ft | 396 kts | 36° |
| 2026-05-04 12:31 | 24.86996 | 103.10163 | 29509 ft | 388 kts | 18° |
| 2026-05-04 12:31 | 24.89465 | 103.11342 | 30115 ft | 391 kts | 15° |
| 2026-05-04 12:32 | 24.91886 | 103.12834 | 30586 ft | 411 kts | 24° |
| 2026-05-04 12:32 | 24.96651 | 103.16501 | 31816 ft | 421 kts | 28° |
| 2026-05-04 12:32 | 24.99014 | 103.18392 | 32615 ft | 419 kts | 28° |
| 2026-05-04 12:33 | 25.01366 | 103.20266 | 33451 ft | 415 kts | 28° |
| 2026-05-04 12:33 | 25.03710 | 103.22111 | 34176 ft | 413 kts | 27° |
| 2026-05-04 12:33 | 25.06050 | 103.23938 | 34816 ft | 411 kts | 27° |
| 2026-05-04 12:33 | 25.08375 | 103.25744 | 35453 ft | 408 kts | 27° |
| 2026-05-04 12:34 | 25.10695 | 103.27540 | 36054 ft | 406 kts | 27° |
| 2026-05-04 12:34 | 25.13005 | 103.29326 | 36676 ft | 404 kts | 27° |
| 2026-05-04 12:34 | 25.15298 | 103.31099 | 37247 ft | 403 kts | 27° |
| 2026-05-04 12:35 | 25.19926 | 103.34672 | 37343 ft | 404 kts | 27° |
| 2026-05-04 12:35 | 25.24484 | 103.38210 | 37320 ft | 400 kts | 27° |
| 2026-05-04 12:36 | 25.29036 | 103.41733 | 37347 ft | 399 kts | 27° |
| 2026-05-04 12:36 | 25.33585 | 103.45263 | 37354 ft | 400 kts | 26° |
| 2026-05-04 12:37 | 25.38142 | 103.48801 | 37334 ft | 401 kts | 27° |
| 2026-05-04 12:37 | 25.42706 | 103.52351 | 37321 ft | 402 kts | 26° |
| 2026-05-04 12:38 | 25.47283 | 103.55913 | 37317 ft | 402 kts | 27° |
| 2026-05-04 12:38 | 25.51861 | 103.59479 | 37310 ft | 402 kts | 27° |
| 2026-05-04 12:38 | 25.53947 | 103.61604 | 37289 ft | 419 kts | 48° |
| 2026-05-04 12:39 | 25.55505 | 103.64296 | 37337 ft | 421 kts | 51° |
| 2026-05-04 12:39 | 25.58639 | 103.69841 | 37309 ft | 421 kts | 51° |
| 2026-05-04 12:40 | 25.61760 | 103.75277 | 37308 ft | 420 kts | 50° |
| 2026-05-04 12:40 | 25.64920 | 103.80731 | 37279 ft | 420 kts | 50° |
| 2026-05-04 12:41 | 25.68077 | 103.86178 | 37300 ft | 420 kts | 50° |
| 2026-05-04 12:41 | 25.71236 | 103.91636 | 37287 ft | 421 kts | 50° |
| 2026-05-04 12:42 | 25.74397 | 103.97106 | 37270 ft | 421 kts | 50° |
| 2026-05-04 12:42 | 25.77560 | 104.02585 | 37267 ft | 422 kts | 50° |
| 2026-05-04 12:43 | 25.80722 | 104.08055 | 37255 ft | 421 kts | 50° |
| 2026-05-04 12:43 | 25.83924 | 104.13494 | 37254 ft | 421 kts | 50° |
| 2026-05-04 12:44 | 25.87129 | 104.18926 | 37278 ft | 421 kts | 49° |
| 2026-05-04 12:44 | 25.90332 | 104.24373 | 37245 ft | 422 kts | 49° |
| 2026-05-04 12:45 | 25.93531 | 104.29827 | 37250 ft | 422 kts | 49° |
| 2026-05-04 12:45 | 25.96729 | 104.35291 | 37250 ft | 422 kts | 50° |
| 2026-05-04 12:46 | 25.99930 | 104.40757 | 37226 ft | 424 kts | 49° |
| 2026-05-04 12:46 | 26.01568 | 104.43540 | 37252 ft | 436 kts | 48° |
| 2026-05-04 12:46 | 26.03465 | 104.46193 | 37235 ft | 441 kts | 38° |
| 2026-05-04 12:47 | 26.08113 | 104.50704 | 37221 ft | 457 kts | 31° |
| 2026-05-04 12:47 | 26.13159 | 104.55252 | 37254 ft | 477 kts | 31° |
| 2026-05-04 12:48 | 26.18338 | 104.59988 | 37201 ft | 484 kts | 32° |
| 2026-05-04 12:48 | 26.23507 | 104.64801 | 37182 ft | 483 kts | 32° |
| 2026-05-04 12:49 | 26.28650 | 104.69610 | 37198 ft | 482 kts | 32° |
| 2026-05-04 12:49 | 26.33788 | 104.74414 | 37219 ft | 482 kts | 32° |
| 2026-05-04 12:50 | 26.38883 | 104.79168 | 37189 ft | 473 kts | 32° |
| 2026-05-04 12:50 | 26.43911 | 104.83876 | 37213 ft | 472 kts | 32° |
| 2026-05-04 12:51 | 26.48095 | 104.87791 | 37204 ft | 471 kts | 32° |
| 2026-05-04 12:51 | 26.53121 | 104.92501 | 37210 ft | 473 kts | 32° |
| 2026-05-04 12:52 | 26.58169 | 104.97230 | 37180 ft | 475 kts | 32° |
| 2026-05-04 12:52 | 26.63082 | 105.02216 | 37181 ft | 486 kts | 41° |
| 2026-05-04 12:53 | 26.66791 | 105.08677 | 37223 ft | 503 kts | 58° |
| 2026-05-04 12:53 | 26.69646 | 105.15867 | 37170 ft | 507 kts | 60° |
| 2026-05-04 12:54 | 26.72464 | 105.23092 | 37184 ft | 507 kts | 60° |
| 2026-05-04 12:54 | 26.75311 | 105.30332 | 37192 ft | 510 kts | 59° |
| 2026-05-04 12:55 | 26.78202 | 105.37578 | 37190 ft | 510 kts | 59° |
| 2026-05-04 12:55 | 26.81108 | 105.44829 | 37188 ft | 509 kts | 59° |
| 2026-05-04 12:56 | 26.83997 | 105.52055 | 37188 ft | 508 kts | 59° |
| 2026-05-04 12:56 | 26.86875 | 105.59270 | 37191 ft | 507 kts | 59° |
| 2026-05-04 12:57 | 26.89745 | 105.66480 | 37228 ft | 507 kts | 59° |
| 2026-05-04 12:57 | 26.92623 | 105.73722 | 37199 ft | 508 kts | 59° |
| 2026-05-04 12:58 | 26.95495 | 105.80964 | 37205 ft | 509 kts | 59° |
| 2026-05-04 12:58 | 26.98369 | 105.88225 | 37191 ft | 510 kts | 59° |
| 2026-05-04 12:59 | 27.01223 | 105.95448 | 37196 ft | 510 kts | 59° |
| 2026-05-04 12:59 | 27.04094 | 106.02720 | 37209 ft | 510 kts | 59° |
| 2026-05-04 13:00 | 27.07210 | 106.09828 | 37208 ft | 507 kts | 55° |
| 2026-05-04 13:00 | 27.10484 | 106.16838 | 37199 ft | 507 kts | 55° |
| 2026-05-04 13:01 | 27.13721 | 106.23869 | 37211 ft | 507 kts | 56° |
| 2026-05-04 13:01 | 27.16918 | 106.30918 | 37213 ft | 507 kts | 56° |
| 2026-05-04 13:02 | 27.20118 | 106.37972 | 37207 ft | 507 kts | 56° |
| 2026-05-04 13:02 | 27.23327 | 106.45037 | 37200 ft | 507 kts | 55° |
| 2026-05-04 13:03 | 27.26540 | 106.52104 | 37192 ft | 508 kts | 56° |
| 2026-05-04 13:03 | 27.29748 | 106.59180 | 37181 ft | 509 kts | 56° |
| 2026-05-04 13:04 | 27.32956 | 106.66267 | 37195 ft | 511 kts | 56° |
| 2026-05-04 13:04 | 27.36184 | 106.73401 | 37206 ft | 513 kts | 56° |
| 2026-05-04 13:05 | 27.39409 | 106.80576 | 37196 ft | 514 kts | 56° |
| 2026-05-04 13:05 | 27.42621 | 106.87764 | 37199 ft | 514 kts | 56° |
| 2026-05-04 13:06 | 27.45832 | 106.94961 | 37204 ft | 514 kts | 56° |
| 2026-05-04 13:06 | 27.49051 | 107.02145 | 37184 ft | 513 kts | 56° |
| 2026-05-04 13:07 | 27.52301 | 107.09289 | 37189 ft | 512 kts | 56° |
| 2026-05-04 13:07 | 27.55543 | 107.16425 | 37190 ft | 511 kts | 56° |
| 2026-05-04 13:08 | 27.58772 | 107.23568 | 37199 ft | 512 kts | 56° |
| 2026-05-04 13:08 | 27.61992 | 107.30724 | 37186 ft | 512 kts | 56° |
| 2026-05-04 13:09 | 27.65205 | 107.37884 | 37185 ft | 511 kts | 56° |
| 2026-05-04 13:09 | 27.68409 | 107.45036 | 37187 ft | 511 kts | 56° |
| 2026-05-04 13:10 | 27.71608 | 107.52185 | 37184 ft | 510 kts | 56° |
| 2026-05-04 13:10 | 27.74779 | 107.59281 | 37177 ft | 510 kts | 56° |
| 2026-05-04 13:11 | 27.77992 | 107.66489 | 37160 ft | 510 kts | 56° |
| 2026-05-04 13:11 | 27.81178 | 107.73647 | 37188 ft | 511 kts | 56° |
| 2026-05-04 13:12 | 27.84356 | 107.80758 | 37168 ft | 510 kts | 55° |
| 2026-05-04 13:12 | 27.87631 | 107.87920 | 37170 ft | 508 kts | 55° |
| 2026-05-04 13:13 | 27.90894 | 107.95028 | 37160 ft | 510 kts | 55° |
| 2026-05-04 13:13 | 27.94157 | 108.02173 | 37157 ft | 512 kts | 55° |
| 2026-05-04 13:14 | 27.97385 | 108.09277 | 37128 ft | 511 kts | 56° |
| 2026-05-04 13:14 | 28.00626 | 108.16420 | 37148 ft | 511 kts | 55° |
| 2026-05-04 13:15 | 28.03872 | 108.23573 | 37152 ft | 511 kts | 55° |
| 2026-05-04 13:15 | 28.07115 | 108.30748 | 37135 ft | 512 kts | 55° |
| 2026-05-04 13:16 | 28.10381 | 108.37991 | 37146 ft | 514 kts | 55° |
| 2026-05-04 13:16 | 28.13608 | 108.45153 | 37147 ft | 514 kts | 55° |
| 2026-05-04 13:17 | 28.16855 | 108.52378 | 37161 ft | 515 kts | 55° |
| 2026-05-04 13:17 | 28.20113 | 108.59629 | 37159 ft | 516 kts | 56° |
| 2026-05-04 13:18 | 28.23363 | 108.66886 | 37199 ft | 517 kts | 55° |
| 2026-05-04 13:18 | 28.26624 | 108.74165 | 37161 ft | 518 kts | 54° |
| 2026-05-04 13:19 | 28.29879 | 108.81462 | 37166 ft | 519 kts | 56° |
| 2026-05-04 13:19 | 28.33135 | 108.88772 | 37149 ft | 520 kts | 55° |
| 2026-05-04 13:20 | 28.36387 | 108.96090 | 37156 ft | 519 kts | 56° |
| 2026-05-04 13:20 | 28.39639 | 109.03408 | 37150 ft | 518 kts | 56° |
| 2026-05-04 13:21 | 28.42887 | 109.10724 | 37142 ft | 519 kts | 56° |
| 2026-05-04 13:21 | 28.46133 | 109.18059 | 37136 ft | 520 kts | 56° |
| 2026-05-04 13:22 | 28.49374 | 109.25396 | 37139 ft | 520 kts | 56° |
| 2026-05-04 13:22 | 28.52610 | 109.32745 | 37137 ft | 520 kts | 56° |
| 2026-05-04 13:23 | 28.55850 | 109.40100 | 37129 ft | 521 kts | 56° |
| 2026-05-04 13:23 | 28.58984 | 109.47553 | 37133 ft | 525 kts | 61° |
| 2026-05-04 13:24 | 28.61600 | 109.55278 | 37142 ft | 528 kts | 63° |
| 2026-05-04 13:24 | 28.64198 | 109.63102 | 37125 ft | 529 kts | 62° |
| 2026-05-04 13:25 | 28.68289 | 109.74749 | 37141 ft | 528 kts | 61° |
| 2026-05-04 13:25 | 28.71088 | 109.82484 | 37128 ft | 528 kts | 61° |
| 2026-05-04 13:26 | 28.73869 | 109.90218 | 37131 ft | 528 kts | 61° |
| 2026-05-04 13:26 | 28.76634 | 109.97966 | 37136 ft | 528 kts | 62° |
| 2026-05-04 13:27 | 28.79391 | 110.05720 | 37121 ft | 528 kts | 62° |
| 2026-05-04 13:27 | 28.82140 | 110.13463 | 37139 ft | 526 kts | 62° |
| 2026-05-04 13:28 | 28.84885 | 110.21214 | 37162 ft | 527 kts | 62° |
| 2026-05-04 13:28 | 28.87629 | 110.28983 | 37147 ft | 528 kts | 62° |
| 2026-05-04 13:29 | 28.90369 | 110.36752 | 37131 ft | 528 kts | 62° |
| 2026-05-04 13:29 | 28.93096 | 110.44503 | 37141 ft | 526 kts | 62° |
| 2026-05-04 13:30 | 28.95827 | 110.52278 | 37135 ft | 527 kts | 63° |
| 2026-05-04 13:30 | 28.98551 | 110.60050 | 37144 ft | 528 kts | 62° |
| 2026-05-04 13:31 | 29.01276 | 110.67841 | 37129 ft | 527 kts | 62° |
| 2026-05-04 13:31 | 29.03974 | 110.75551 | 37163 ft | 526 kts | 62° |
| 2026-05-04 13:32 | 29.06744 | 110.83358 | 37118 ft | 528 kts | 62° |
| 2026-05-04 13:32 | 29.09492 | 110.91086 | 37128 ft | 528 kts | 62° |
| 2026-05-04 13:33 | 29.12249 | 110.98875 | 37136 ft | 529 kts | 62° |
| 2026-05-04 13:33 | 29.15007 | 111.06695 | 37116 ft | 530 kts | 62° |
| 2026-05-04 13:34 | 29.17760 | 111.14525 | 37115 ft | 531 kts | 63° |
| 2026-05-04 13:34 | 29.20514 | 111.22372 | 37115 ft | 532 kts | 63° |
| 2026-05-04 13:35 | 29.24647 | 111.34174 | 37117 ft | 532 kts | 63° |
| 2026-05-04 13:36 | 29.26928 | 111.40713 | 37108 ft | 532 kts | 63° |
| 2026-05-04 13:36 | 29.29665 | 111.48570 | 37109 ft | 531 kts | 63° |
| 2026-05-04 13:37 | 29.32389 | 111.56406 | 37123 ft | 528 kts | 63° |
| 2026-05-04 13:37 | 29.35139 | 111.64198 | 37108 ft | 525 kts | 59° |
| 2026-05-04 13:38 | 29.38818 | 111.71298 | 37117 ft | 515 kts | 49° |
| 2026-05-04 13:38 | 29.42832 | 111.78100 | 37115 ft | 515 kts | 49° |
| 2026-05-04 13:39 | 29.46822 | 111.84931 | 37112 ft | 516 kts | 49° |
| 2026-05-04 13:39 | 29.50770 | 111.91827 | 37115 ft | 518 kts | 50° |
| 2026-05-04 13:40 | 29.54707 | 111.98757 | 37109 ft | 519 kts | 50° |
| 2026-05-04 13:40 | 29.58647 | 112.05698 | 37113 ft | 520 kts | 50° |
| 2026-05-04 13:41 | 29.62598 | 112.12662 | 37135 ft | 520 kts | 50° |
| 2026-05-04 13:41 | 29.66552 | 112.19644 | 37114 ft | 521 kts | 50° |
| 2026-05-04 13:42 | 29.72482 | 112.30138 | 37108 ft | 522 kts | 50° |
| 2026-05-04 13:42 | 29.76426 | 112.37142 | 37108 ft | 522 kts | 51° |
| 2026-05-04 13:43 | 29.80332 | 112.44121 | 37109 ft | 522 kts | 51° |
| 2026-05-04 13:43 | 29.84258 | 112.51152 | 37102 ft | 522 kts | 51° |
| 2026-05-04 13:44 | 29.88213 | 112.58244 | 37110 ft | 522 kts | 51° |
| 2026-05-04 13:44 | 29.92131 | 112.65280 | 37101 ft | 522 kts | 51° |
| 2026-05-04 13:45 | 29.96022 | 112.72279 | 37112 ft | 521 kts | 51° |
| 2026-05-04 13:45 | 29.99934 | 112.79327 | 37113 ft | 521 kts | 51° |
| 2026-05-04 13:46 | 30.03840 | 112.86377 | 37113 ft | 522 kts | 52° |
| 2026-05-04 13:46 | 30.07743 | 112.93435 | 37110 ft | 522 kts | 52° |
| 2026-05-04 13:47 | 30.11642 | 113.00499 | 37107 ft | 521 kts | 52° |
| 2026-05-04 13:47 | 30.15536 | 113.07567 | 37108 ft | 521 kts | 52° |
| 2026-05-04 13:48 | 30.19419 | 113.14625 | 37101 ft | 521 kts | 52° |
| 2026-05-04 13:48 | 30.23314 | 113.21690 | 37114 ft | 521 kts | 52° |
| 2026-05-04 13:49 | 30.27261 | 113.28713 | 37108 ft | 520 kts | 51° |
| 2026-05-04 13:49 | 30.31207 | 113.35716 | 37106 ft | 520 kts | 51° |
| 2026-05-04 13:50 | 30.35139 | 113.42731 | 37112 ft | 519 kts | 52° |
| 2026-05-04 13:50 | 30.39061 | 113.49753 | 37109 ft | 520 kts | 52° |
| 2026-05-04 13:51 | 30.42986 | 113.56794 | 37117 ft | 520 kts | 52° |
| 2026-05-04 13:51 | 30.46899 | 113.63826 | 37109 ft | 519 kts | 52° |
| 2026-05-04 13:52 | 30.52729 | 113.74324 | 37109 ft | 517 kts | 52° |
| 2026-05-04 13:53 | 30.56644 | 113.81388 | 37112 ft | 517 kts | 52° |
| 2026-05-04 13:53 | 30.60508 | 113.88359 | 37145 ft | 517 kts | 52° |
| 2026-05-04 13:54 | 30.66338 | 113.98871 | 37114 ft | 515 kts | 52° |
| 2026-05-04 13:55 | 30.72146 | 114.09344 | 37119 ft | 514 kts | 52° |
| 2026-05-04 13:55 | 30.77908 | 114.19853 | 37122 ft | 516 kts | 56° |
| 2026-05-04 13:56 | 30.80738 | 114.27579 | 37130 ft | 521 kts | 67° |
| 2026-05-04 13:57 | 30.84453 | 114.39431 | 37110 ft | 520 kts | 66° |
| 2026-05-04 13:58 | 30.89540 | 114.55185 | 37120 ft | 520 kts | 66° |
| 2026-05-04 13:58 | 30.93363 | 114.67004 | 37125 ft | 520 kts | 66° |
| 2026-05-04 13:59 | 30.95902 | 114.74887 | 37136 ft | 520 kts | 66° |
| 2026-05-04 14:00 | 30.99697 | 114.86715 | 37128 ft | 519 kts | 66° |
| 2026-05-04 14:00 | 31.02173 | 114.94455 | 37115 ft | 501 kts | 66° |
| 2026-05-04 14:00 | 31.03392 | 114.98247 | 37119 ft | 498 kts | 66° |
| 2026-05-04 14:01 | 31.05839 | 115.05824 | 37146 ft | 501 kts | 66° |
| 2026-05-04 14:02 | 31.09490 | 115.17181 | 37145 ft | 504 kts | 66° |
| 2026-05-04 14:02 | 31.11933 | 115.24844 | 37157 ft | 505 kts | 67° |
| 2026-05-04 14:03 | 31.14335 | 115.32513 | 37156 ft | 501 kts | 66° |
| 2026-05-04 14:03 | 31.16794 | 115.40105 | 37140 ft | 498 kts | 66° |
| 2026-05-04 14:04 | 31.19678 | 115.51679 | 37164 ft | 501 kts | 93° |
| 2026-05-04 14:04 | 31.19113 | 115.55671 | 37153 ft | 499 kts | 110° |
| 2026-05-04 14:04 | 31.17712 | 115.59339 | 37164 ft | 492 kts | 127° |
| 2026-05-04 14:05 | 31.13028 | 115.64798 | 37163 ft | 467 kts | 158° |
| 2026-05-04 14:05 | 31.10141 | 115.66269 | 37166 ft | 452 kts | 173° |
| 2026-05-04 14:05 | 31.07101 | 115.66883 | 37164 ft | 436 kts | 187° |
| 2026-05-04 14:06 | 31.04062 | 115.67203 | 37127 ft | 451 kts | 174° |
| 2026-05-04 14:06 | 31.01146 | 115.68739 | 37176 ft | 474 kts | 152° |
| 2026-05-04 14:06 | 30.98731 | 115.71454 | 37127 ft | 494 kts | 130° |
| 2026-05-04 14:06 | 30.97065 | 115.74992 | 37165 ft | 503 kts | 115° |
| 2026-05-04 14:07 | 30.96043 | 115.78918 | 37174 ft | 511 kts | 102° |
| 2026-05-04 14:07 | 30.95735 | 115.83035 | 37155 ft | 512 kts | 86° |
| 2026-05-04 14:07 | 30.96323 | 115.87097 | 37187 ft | 506 kts | 69° |
| 2026-05-04 14:07 | 30.97758 | 115.90791 | 37176 ft | 498 kts | 52° |
| 2026-05-04 14:08 | 30.99895 | 115.93893 | 37171 ft | 486 kts | 40° |
| 2026-05-04 14:08 | 31.03988 | 116.00255 | 37169 ft | 494 kts | 52° |
| 2026-05-04 14:09 | 31.09537 | 116.10423 | 37037 ft | 499 kts | 52° |
| 2026-05-04 14:09 | 31.11438 | 116.13820 | 36794 ft | 499 kts | 52° |
| 2026-05-04 14:10 | 31.15270 | 116.20539 | 36282 ft | 496 kts | 51° |
| 2026-05-04 14:10 | 31.17197 | 116.23883 | 36048 ft | 497 kts | 51° |
| 2026-05-04 14:10 | 31.19128 | 116.27231 | 35788 ft | 498 kts | 51° |
| 2026-05-04 14:10 | 31.21067 | 116.30596 | 35555 ft | 499 kts | 51° |
| 2026-05-04 14:11 | 31.23001 | 116.33963 | 35330 ft | 500 kts | 51° |
| 2026-05-04 14:11 | 31.26883 | 116.40735 | 34858 ft | 502 kts | 51° |
| 2026-05-04 14:11 | 31.28827 | 116.44132 | 34635 ft | 502 kts | 52° |
| 2026-05-04 14:12 | 31.30794 | 116.47574 | 34400 ft | 502 kts | 52° |
| 2026-05-04 14:12 | 31.32706 | 116.50922 | 34194 ft | 502 kts | 52° |
| 2026-05-04 14:12 | 31.36562 | 116.57686 | 33499 ft | 501 kts | 52° |
| 2026-05-04 14:13 | 31.38509 | 116.61099 | 32822 ft | 505 kts | 52° |
| 2026-05-04 14:13 | 31.40447 | 116.64504 | 32189 ft | 499 kts | 52° |
| 2026-05-04 14:13 | 31.42360 | 116.67869 | 31565 ft | 494 kts | 52° |
| 2026-05-04 14:13 | 31.44285 | 116.71258 | 30954 ft | 494 kts | 53° |
| 2026-05-04 14:14 | 31.46165 | 116.74567 | 30374 ft | 494 kts | 53° |
| 2026-05-04 14:14 | 31.50036 | 116.81385 | 29045 ft | 508 kts | 53° |
| 2026-05-04 14:14 | 31.51983 | 116.84824 | 28401 ft | 501 kts | 53° |
| 2026-05-04 14:15 | 31.55739 | 116.91482 | 27069 ft | 484 kts | 53° |
| 2026-05-04 14:15 | 31.59528 | 116.98187 | 25797 ft | 498 kts | 54° |
| 2026-05-04 14:16 | 31.63256 | 117.04811 | 24548 ft | 471 kts | 54° |
| 2026-05-04 14:16 | 31.65027 | 117.07964 | 23954 ft | 454 kts | 54° |
| 2026-05-04 14:17 | 31.68398 | 117.13964 | 22688 ft | 431 kts | 54° |
| 2026-05-04 14:17 | 31.70044 | 117.16892 | 22033 ft | 427 kts | 54° |
| 2026-05-04 14:17 | 31.73281 | 117.22660 | 20928 ft | 420 kts | 54° |
| 2026-05-04 14:18 | 31.74802 | 117.25587 | 20784 ft | 423 kts | 63° |
| 2026-05-04 14:18 | 31.75333 | 117.32431 | 20732 ft | 431 kts | 103° |
| 2026-05-04 14:19 | 31.72571 | 117.38578 | 20735 ft | 430 kts | 127° |
| 2026-05-04 14:19 | 31.70795 | 117.41391 | 20722 ft | 430 kts | 128° |
| 2026-05-04 14:19 | 31.69008 | 117.44203 | 20717 ft | 430 kts | 128° |
| 2026-05-04 14:19 | 31.67832 | 117.46077 | 20719 ft | 429 kts | 127° |
| 2026-05-04 14:20 | 31.65491 | 117.49873 | 20727 ft | 429 kts | 127° |
| 2026-05-04 14:20 | 31.64339 | 117.51757 | 20727 ft | 429 kts | 127° |
| 2026-05-04 14:20 | 31.62617 | 117.54616 | 20727 ft | 429 kts | 123° |
| 2026-05-04 14:21 | 31.61110 | 117.61299 | 20731 ft | 430 kts | 86° |
| 2026-05-04 14:21 | 31.61396 | 117.64789 | 20740 ft | 429 kts | 82° |
| 2026-05-04 14:21 | 31.61769 | 117.68273 | 20345 ft | 431 kts | 81° |
| 2026-05-04 14:21 | 31.62159 | 117.71737 | 19720 ft | 426 kts | 81° |
| 2026-05-04 14:22 | 31.62537 | 117.75166 | 19126 ft | 420 kts | 82° |
| 2026-05-04 14:22 | 31.62894 | 117.78547 | 18545 ft | 415 kts | 82° |
| 2026-05-04 14:22 | 31.63233 | 117.81878 | 17920 ft | 409 kts | 82° |
| 2026-05-04 14:22 | 31.63559 | 117.85173 | 17268 ft | 403 kts | 83° |
| 2026-05-04 14:23 | 31.64187 | 117.91629 | 15995 ft | 393 kts | 82° |
| 2026-05-04 14:23 | 31.64493 | 117.94799 | 15380 ft | 388 kts | 82° |
| 2026-05-04 14:23 | 31.64795 | 117.97930 | 14789 ft | 384 kts | 82° |
| 2026-05-04 14:24 | 31.65092 | 118.01027 | 14199 ft | 380 kts | 82° |
| 2026-05-04 14:24 | 31.65386 | 118.04085 | 13364 ft | 375 kts | 82° |
| 2026-05-04 14:24 | 31.65677 | 118.07116 | 12420 ft | 372 kts | 82° |
| 2026-05-04 14:24 | 31.65957 | 118.10053 | 12114 ft | 351 kts | 82° |
| 2026-05-04 14:25 | 31.66220 | 118.12811 | 11966 ft | 329 kts | 82° |
| 2026-05-04 14:25 | 31.66685 | 118.17840 | 11825 ft | 290 kts | 84° |
| 2026-05-04 14:25 | 31.66745 | 118.20130 | 11815 ft | 272 kts | 88° |
| 2026-05-04 14:26 | 31.66739 | 118.22280 | 11815 ft | 255 kts | 89° |
| 2026-05-04 14:26 | 31.66728 | 118.24305 | 11812 ft | 240 kts | 89° |
| 2026-05-04 14:26 | 31.66721 | 118.26210 | 11737 ft | 229 kts | 88° |
| 2026-05-04 14:26 | 31.66719 | 118.28066 | 11511 ft | 227 kts | 88° |
| 2026-05-04 14:27 | 31.66720 | 118.29927 | 11151 ft | 230 kts | 88° |
| 2026-05-04 14:27 | 31.66724 | 118.31838 | 10703 ft | 238 kts | 88° |
| 2026-05-04 14:27 | 31.66730 | 118.33828 | 10085 ft | 252 kts | 88° |
| 2026-05-04 14:27 | 31.66737 | 118.35966 | 9224 ft | 271 kts | 88° |
| 2026-05-04 14:28 | 31.66743 | 118.38226 | 8583 ft | 279 kts | 88° |
| 2026-05-04 14:28 | 31.66747 | 118.40459 | 8415 ft | 267 kts | 88° |
| 2026-05-04 14:28 | 31.66520 | 118.42565 | 8290 ft | 257 kts | 110° |
| 2026-05-04 14:28 | 31.65798 | 118.44432 | 8131 ft | 248 kts | 115° |
| 2026-05-04 14:29 | 31.64347 | 118.48085 | 7495 ft | 247 kts | 115° |
| 2026-05-04 14:29 | 31.62924 | 118.51696 | 6887 ft | 245 kts | 115° |
| 2026-05-04 14:30 | 31.62212 | 118.53507 | 6592 ft | 244 kts | 115° |
| 2026-05-04 14:30 | 31.61506 | 118.55303 | 6382 ft | 238 kts | 115° |
| 2026-05-04 14:30 | 31.60264 | 118.58702 | 6137 ft | 217 kts | 99° |
| 2026-05-04 14:31 | 31.60519 | 118.60348 | 6057 ft | 200 kts | 59° |
| 2026-05-04 14:31 | 31.61868 | 118.62960 | 5683 ft | 179 kts | 57° |
| 2026-05-04 14:32 | 31.63116 | 118.65312 | 5217 ft | 163 kts | 58° |
| 2026-05-04 14:32 | 31.63715 | 118.66440 | 4873 ft | 163 kts | 59° |
| 2026-05-04 14:32 | 31.64322 | 118.67583 | 4506 ft | 166 kts | 59° |
| 2026-05-04 14:32 | 31.64958 | 118.68782 | 3909 ft | 181 kts | 59° |
| 2026-05-04 14:33 | 31.65635 | 118.70056 | 3409 ft | 186 kts | 59° |
| 2026-05-04 14:33 | 31.66318 | 118.71340 | 2989 ft | 184 kts | 59° |
| 2026-05-04 14:33 | 31.66994 | 118.72611 | 2574 ft | 182 kts | 59° |
| 2026-05-04 14:33 | 31.67659 | 118.73863 | 2199 ft | 179 kts | 60° |
| 2026-05-04 14:34 | 31.68307 | 118.75080 | 1894 ft | 175 kts | 60° |
| 2026-05-04 14:34 | 31.68929 | 118.76247 | 1698 ft | 155 kts | 60° |
| 2026-05-04 14:34 | 31.69455 | 118.77235 | 1471 ft | 132 kts | 61° |
| 2026-05-04 14:34 | 31.69914 | 118.78100 | 1302 ft | 120 kts | 61° |
| 2026-05-04 14:35 | 31.70351 | 118.78923 | 1162 ft | 120 kts | 61° |
| 2026-05-04 14:35 | 31.70788 | 118.79746 | 1006 ft | 118 kts | 61° |
| 2026-05-04 14:35 | 31.71224 | 118.80564 | 856 ft | 119 kts | 60° |
| 2026-05-04 14:35 | 31.71654 | 118.81389 | 698 ft | 117 kts | 60° |
| 2026-05-04 14:36 | 31.72078 | 118.82187 | 553 ft | 115 kts | 59° |
| 2026-05-04 14:36 | 31.72497 | 118.82968 | 410 ft | 112 kts | 59° |
| 2026-05-04 14:36 | 31.72917 | 118.83756 | 267 ft | 115 kts | 59° |
| 2026-05-04 14:36 | 31.73342 | 118.84556 | 108 ft | 116 kts | 59° |
| 2026-05-04 14:37 | 31.73738 | 118.85314 | 52 ft | 94 kts | 59° |
| 2026-05-04 14:37 | 31.74013 | 118.85812 | 54 ft | 52 kts | 58° |
| 2026-05-04 14:37 | 31.74154 | 118.86077 | 53 ft | 35 kts | 58° |
| 2026-05-04 14:37 | 31.74172 | 118.86234 | 48 ft | 15 kts | 144° |
| 2026-05-04 14:38 | 31.74085 | 118.86297 | 57 ft | 15 kts | 148° |
| 2026-05-04 14:38 | 31.74001 | 118.86359 | 54 ft | 14 kts | 147° |
| 2026-05-04 14:38 | 31.73923 | 118.86418 | 57 ft | 13 kts | 147° |
| 2026-05-04 14:38 | 31.73857 | 118.86486 | 56 ft | 13 kts | 98° |
| 2026-05-04 14:39 | 31.73884 | 118.86557 | 54 ft | 5 kts | 57° |
| 2026-05-04 14:39 | 31.73893 | 118.86572 | 53 ft | 0 kts | 57° |